createdAt,value
2018-07-02T00:00:12.940Z,18.50
2018-07-02T00:02:41.875Z,18.40
2018-07-02T00:05:10.830Z,18.40
2018-07-02T00:07:39.740Z,18.40
2018-07-02T00:12:37.252Z,18.50
2018-07-02T00:15:06.384Z,18.50
2018-07-02T00:17:35.325Z,18.50
2018-07-02T00:20:05.131Z,18.50
2018-07-02T00:22:34.073Z,18.50
2018-07-02T00:25:02.969Z,18.50
2018-07-02T00:30:00.480Z,18.50
2018-07-02T00:32:29.400Z,18.50
2018-07-02T00:34:58.339Z,18.50
2018-07-02T00:37:27.219Z,18.50
2018-07-02T00:39:56.155Z,18.50
2018-07-02T00:42:25.066Z,18.40
2018-07-02T00:44:54.016Z,18.40
2018-07-02T00:47:22.912Z,18.40
2018-07-02T00:49:51.916Z,18.40
2018-07-02T00:52:20.878Z,18.30
2018-07-02T00:54:49.796Z,18.30
2018-07-02T00:57:18.768Z,18.40
2018-07-02T01:02:16.205Z,18.30
2018-07-02T01:04:45.204Z,18.30
2018-07-02T01:07:14.181Z,18.30
2018-07-02T01:09:43.184Z,18.30
2018-07-02T01:12:12.152Z,18.20
2018-07-02T01:14:41.121Z,18.20
2018-07-02T01:17:10.068Z,18.20
2018-07-02T01:19:39.010Z,18.20
2018-07-02T01:22:08.049Z,18.20
2018-07-02T01:24:36.961Z,18.10
2018-07-02T01:29:34.402Z,18.10
2018-07-02T01:32:03.378Z,18.10
2018-07-02T01:34:32.333Z,18.00
2018-07-02T01:39:29.809Z,18.10
2018-07-02T01:41:58.750Z,18.00
2018-07-02T01:44:27.663Z,18.00
2018-07-02T01:46:56.632Z,18.00
2018-07-02T01:49:25.556Z,18.00
2018-07-02T01:54:23.015Z,18.00
2018-07-02T01:56:51.978Z,18.00
2018-07-02T01:59:20.940Z,17.90
2018-07-02T02:01:49.867Z,17.90
2018-07-02T02:04:18.795Z,17.90
2018-07-02T02:06:47.763Z,17.90
2018-07-02T02:09:16.699Z,17.80
2018-07-02T02:11:45.691Z,17.90
2018-07-02T02:14:14.621Z,17.90
2018-07-02T02:16:43.569Z,17.80
2018-07-02T02:19:12.516Z,17.90
2018-07-02T02:21:41.444Z,17.90
2018-07-02T02:26:38.918Z,17.90
2018-07-02T02:31:36.388Z,17.80
2018-07-02T02:36:33.843Z,17.80
2018-07-02T02:39:02.836Z,17.80
2018-07-02T02:41:31.770Z,17.80
2018-07-02T02:44:00.687Z,17.80
2018-07-02T02:46:29.607Z,17.80
2018-07-02T02:48:58.544Z,17.80
2018-07-02T02:51:27.466Z,17.80
2018-07-02T02:53:56.393Z,17.80
2018-07-02T02:56:25.289Z,17.70
2018-07-02T02:58:54.199Z,17.70
2018-07-02T03:01:23.165Z,17.70
2018-07-02T03:06:20.623Z,17.70
2018-07-02T03:08:49.545Z,17.60
2018-07-02T03:11:18.575Z,17.60
2018-07-02T03:13:47.553Z,17.70
2018-07-02T03:16:16.572Z,17.70
2018-07-02T03:18:45.478Z,17.70
2018-07-02T03:21:14.941Z,17.60
2018-07-02T03:23:44.131Z,17.60
2018-07-02T03:26:13.445Z,17.60
2018-07-02T03:28:42.379Z,17.60
2018-07-02T03:31:11.333Z,17.60
2018-07-02T03:33:40.264Z,17.60
2018-07-02T03:36:09.218Z,17.60
2018-07-02T03:38:38.180Z,17.60
2018-07-02T03:41:07.172Z,17.60
2018-07-02T03:43:36.095Z,17.50
2018-07-02T03:46:05.133Z,17.60
2018-07-02T03:51:02.634Z,17.60
2018-07-02T03:53:31.581Z,17.60
2018-07-02T03:56:00.846Z,17.50
2018-07-02T03:58:29.847Z,17.50
2018-07-02T04:00:58.884Z,17.50
2018-07-02T04:05:56.436Z,17.50
2018-07-02T04:08:25.432Z,17.50
2018-07-02T04:13:22.911Z,17.50
2018-07-02T04:15:51.893Z,17.50
2018-07-02T04:18:20.815Z,17.50
2018-07-02T04:20:49.752Z,17.50
2018-07-02T04:23:18.717Z,17.50
2018-07-02T04:25:47.689Z,17.50
2018-07-02T04:30:45.194Z,17.40
2018-07-02T04:33:14.144Z,17.40
2018-07-02T04:35:49.642Z,17.40
2018-07-02T04:38:18.577Z,17.40
2018-07-02T04:40:47.565Z,17.40
2018-07-02T04:43:16.508Z,17.40
2018-07-02T04:45:45.478Z,17.40
2018-07-02T04:48:14.440Z,17.40
2018-07-02T04:53:11.991Z,17.30
2018-07-02T04:55:40.979Z,17.40
2018-07-02T04:58:09.938Z,17.40
2018-07-02T05:00:38.909Z,17.30
2018-07-02T05:05:36.979Z,17.30
2018-07-02T05:08:05.945Z,17.40
2018-07-02T05:10:34.939Z,17.40
2018-07-02T05:13:03.936Z,17.30
2018-07-02T05:15:32.863Z,17.40
2018-07-02T05:18:01.776Z,17.40
2018-07-02T05:20:30.706Z,17.40
2018-07-02T05:22:59.612Z,17.40
2018-07-02T05:25:28.511Z,17.40
2018-07-02T05:27:57.408Z,17.40
2018-07-02T05:30:26.416Z,17.40
2018-07-02T05:37:52.321Z,17.40
2018-07-02T05:40:21.265Z,17.50
2018-07-02T05:45:18.690Z,17.40
2018-07-02T05:47:47.678Z,17.30
2018-07-02T05:50:16.647Z,17.40
2018-07-02T05:52:45.553Z,17.30
2018-07-02T05:55:24.636Z,17.40
2018-07-02T05:57:53.669Z,17.40
2018-07-02T06:00:22.760Z,17.30
2018-07-02T06:02:58.320Z,17.40
2018-07-02T06:05:27.299Z,17.40
2018-07-02T06:07:56.262Z,17.40
2018-07-02T06:10:25.301Z,17.40
2018-07-02T06:12:54.285Z,17.40
2018-07-02T06:15:23.199Z,17.40
2018-07-02T06:17:52.171Z,17.40
2018-07-02T06:20:21.060Z,17.50
2018-07-02T06:22:49.977Z,17.40
2018-07-02T06:25:18.905Z,17.50
2018-07-02T06:27:47.832Z,17.50
2018-07-02T06:30:16.789Z,17.50
2018-07-02T06:32:45.679Z,17.50
2018-07-02T06:35:14.615Z,17.50
2018-07-02T06:37:43.551Z,17.50
2018-07-02T06:40:12.463Z,17.50
2018-07-02T06:42:41.423Z,17.40
2018-07-02T06:45:10.380Z,17.50
2018-07-02T06:47:39.309Z,17.50
2018-07-02T06:50:08.264Z,17.50
2018-07-02T06:52:37.242Z,17.60
2018-07-02T06:55:06.464Z,17.60
2018-07-02T06:57:35.403Z,17.60
2018-07-02T07:00:05.373Z,17.70
2018-07-02T07:02:34.283Z,17.70
2018-07-02T07:05:03.314Z,17.70
2018-07-02T07:07:32.269Z,17.70
2018-07-02T07:12:29.673Z,17.70
2018-07-02T07:14:58.658Z,17.80
2018-07-02T07:17:27.589Z,17.80
2018-07-02T07:19:56.515Z,17.80
2018-07-02T07:22:25.724Z,17.80
2018-07-02T07:27:23.124Z,17.90
2018-07-02T07:29:52.036Z,18.00
2018-07-02T07:32:20.964Z,18.00
2018-07-02T07:34:49.837Z,18.00
2018-07-02T07:37:18.907Z,18.00
2018-07-02T07:39:47.835Z,18.10
2018-07-02T07:42:16.713Z,18.10
2018-07-02T07:44:45.653Z,18.20
2018-07-02T07:47:14.579Z,18.20
2018-07-02T07:49:43.495Z,18.30
2018-07-02T07:52:12.711Z,18.30
2018-07-02T07:57:10.219Z,18.40
2018-07-02T07:59:39.130Z,18.40
2018-07-02T08:02:11.288Z,18.40
2018-07-02T08:04:40.206Z,18.50
2018-07-02T08:07:09.182Z,18.50
2018-07-02T08:09:38.083Z,18.60
2018-07-02T08:12:07.029Z,18.60
2018-07-02T08:14:36.058Z,18.70
2018-07-02T08:17:05.004Z,18.80
2018-07-02T08:19:33.972Z,18.80
2018-07-02T08:22:02.874Z,18.90
2018-07-02T08:27:00.337Z,19.00
2018-07-02T08:31:57.804Z,19.10
2018-07-02T08:34:26.788Z,19.10
2018-07-02T08:36:55.856Z,19.10
2018-07-02T08:39:24.814Z,19.20
2018-07-02T08:41:53.668Z,19.20
2018-07-02T08:44:22.581Z,19.30
2018-07-02T08:46:51.555Z,19.30
2018-07-02T08:49:20.516Z,19.40
2018-07-02T08:51:49.445Z,19.40
2018-07-02T08:59:15.375Z,19.50
2018-07-02T09:01:44.379Z,19.50
2018-07-02T09:04:13.277Z,19.60
2018-07-02T09:09:12.299Z,19.70
2018-07-02T09:14:09.819Z,19.80
2018-07-02T09:16:38.741Z,20.00
2018-07-02T09:19:07.650Z,20.00
2018-07-02T09:24:05.152Z,20.20
2018-07-02T09:26:34.004Z,20.20
2018-07-02T09:31:31.540Z,20.30
2018-07-02T09:34:00.436Z,20.40
2018-07-02T09:36:31.133Z,20.30
2018-07-02T09:39:00.350Z,20.40
2018-07-02T09:41:29.094Z,20.40
2018-07-02T09:46:26.492Z,20.60
2018-07-02T09:48:55.491Z,20.70
2018-07-02T09:51:24.373Z,20.70
2018-07-02T09:53:53.298Z,20.80
2018-07-02T09:56:22.257Z,20.80
2018-07-02T09:58:51.237Z,20.90
2018-07-02T10:01:20.205Z,21.00
2018-07-02T10:08:46.152Z,21.10
2018-07-02T10:11:15.084Z,21.20
2018-07-02T10:13:44.104Z,21.20
2018-07-02T10:16:13.035Z,21.30
2018-07-02T10:23:39.016Z,21.40
2018-07-02T10:28:36.542Z,21.50
2018-07-02T10:31:05.922Z,21.60
2018-07-02T10:33:34.812Z,21.60
2018-07-02T10:36:03.739Z,21.70
2018-07-02T10:38:32.642Z,21.70
2018-07-02T10:45:59.410Z,21.90
2018-07-02T10:50:56.892Z,22.10
2018-07-02T10:53:25.826Z,22.20
2018-07-02T10:55:54.768Z,22.40
2018-07-02T11:00:52.228Z,22.60
2018-07-02T11:03:21.140Z,22.80
2018-07-02T11:05:50.056Z,22.80
2018-07-02T11:08:19.063Z,23.00
2018-07-02T11:10:48.319Z,23.10
2018-07-02T11:13:17.299Z,23.20
2018-07-02T11:18:14.746Z,23.50
2018-07-02T11:20:43.647Z,23.50
2018-07-02T11:23:12.545Z,23.60
2018-07-02T11:25:41.484Z,23.70
2018-07-02T11:28:10.381Z,23.70
2018-07-02T11:30:39.319Z,23.90
2018-07-02T11:33:08.244Z,23.90
2018-07-02T11:35:37.163Z,24.10
2018-07-02T11:38:06.144Z,24.10
2018-07-02T11:40:35.255Z,24.20
2018-07-02T11:43:04.238Z,24.30
2018-07-02T11:45:33.134Z,24.40
2018-07-02T11:48:02.101Z,24.50
2018-07-02T11:50:31.083Z,24.60
2018-07-02T11:53:00.853Z,24.70
2018-07-02T11:55:29.753Z,24.80
2018-07-02T11:57:58.804Z,24.90
2018-07-02T12:00:27.680Z,25.00
2018-07-02T12:02:56.604Z,25.00
2018-07-02T12:05:25.552Z,25.00
2018-07-02T12:07:54.479Z,25.10
2018-07-02T12:10:23.448Z,25.10
2018-07-02T12:12:52.357Z,25.20
2018-07-02T12:15:21.292Z,25.30
2018-07-02T12:20:18.741Z,25.40
2018-07-02T12:22:47.676Z,25.40
2018-07-02T12:25:16.610Z,25.40
2018-07-02T12:27:45.543Z,25.40
2018-07-02T12:32:43.019Z,25.50
2018-07-02T12:35:11.952Z,25.50
2018-07-02T12:37:40.872Z,25.50
2018-07-02T12:40:09.774Z,25.60
2018-07-02T12:42:38.700Z,25.60
2018-07-02T12:45:07.961Z,25.70
2018-07-02T12:47:36.870Z,25.70
2018-07-02T12:52:34.624Z,25.80
2018-07-02T12:55:03.553Z,25.90
2018-07-02T12:57:32.436Z,26.00
2018-07-02T13:00:01.340Z,26.00
2018-07-02T13:02:30.243Z,26.00
2018-07-02T13:04:59.184Z,26.10
2018-07-02T13:07:28.117Z,26.20
2018-07-02T13:09:57.066Z,26.20
2018-07-02T13:12:25.968Z,26.30
2018-07-02T13:17:23.327Z,26.30
2018-07-02T13:19:52.273Z,26.40
2018-07-02T13:22:21.185Z,26.40
2018-07-02T13:24:50.401Z,26.50
2018-07-02T16:50:24.686Z,26.70
2018-07-02T16:52:54.020Z,26.70
2018-07-02T16:55:23.169Z,26.60
2018-07-02T16:57:52.124Z,26.50
2018-07-02T17:02:49.669Z,26.30
2018-07-02T17:05:18.656Z,26.30
2018-07-02T17:07:47.601Z,26.20
2018-07-02T17:10:16.600Z,26.20
2018-07-02T17:12:51.984Z,26.10
2018-07-02T17:15:20.900Z,26.10
2018-07-02T17:20:18.414Z,25.90
2018-07-02T17:22:47.400Z,26.00
2018-07-02T17:25:16.360Z,25.90
2018-07-02T17:30:13.827Z,25.80
2018-07-02T17:32:42.704Z,25.80
2018-07-02T17:35:11.203Z,25.70
2018-07-02T17:37:40.180Z,25.70
2018-07-02T17:40:09.169Z,25.70
2018-07-02T17:42:38.431Z,25.70
2018-07-02T17:45:07.362Z,25.70
2018-07-02T17:47:36.236Z,25.50
2018-07-02T17:50:05.253Z,25.40
2018-07-02T17:52:34.152Z,25.30
2018-07-02T17:55:03.044Z,25.30
2018-07-02T18:00:00.515Z,25.20
2018-07-02T18:04:58.559Z,24.90
2018-07-02T18:07:28.644Z,24.80
2018-07-02T18:09:58.638Z,24.90
2018-07-02T18:12:28.610Z,25.00
2018-07-02T18:14:57.509Z,25.00
2018-07-02T18:17:26.449Z,24.90
2018-07-02T18:19:55.340Z,24.90
2018-07-02T18:22:24.332Z,24.90
2018-07-02T18:24:53.296Z,24.80
2018-07-02T18:27:22.287Z,24.70
2018-07-02T18:29:51.224Z,24.60
2018-07-02T18:32:20.102Z,24.50
2018-07-02T18:34:49.091Z,24.30
2018-07-02T18:37:17.980Z,24.20
2018-07-02T18:39:46.907Z,24.20
2018-07-02T18:42:15.851Z,24.10
2018-07-02T18:44:44.763Z,24.10
2018-07-02T18:47:13.711Z,24.00
2018-07-02T18:49:42.654Z,23.90
2018-07-02T18:52:11.586Z,23.90
2018-07-02T18:54:40.615Z,23.90
2018-07-02T18:57:09.673Z,23.90
2018-07-02T18:59:38.589Z,23.80
2018-07-02T19:04:36.082Z,23.50
2018-07-02T19:07:05.223Z,23.40
2018-07-02T19:09:34.124Z,23.30
2018-07-02T19:12:03.065Z,23.20
2018-07-02T19:14:32.018Z,23.30
2018-07-02T19:17:01.032Z,23.10
2018-07-02T19:21:58.580Z,23.10
2018-07-02T19:24:27.574Z,23.10
2018-07-02T19:29:25.347Z,23.10
2018-07-02T19:31:54.317Z,22.90
2018-07-02T19:34:26.120Z,22.80
2018-07-02T19:39:23.493Z,22.70
2018-07-02T19:41:52.709Z,22.60
2018-07-02T19:44:21.643Z,22.50
2018-07-02T19:46:50.625Z,22.40
2018-07-02T19:49:19.520Z,22.30
2018-07-02T19:51:48.463Z,22.30
2018-07-02T19:54:17.441Z,22.30
2018-07-02T19:59:14.963Z,22.10
2018-07-02T20:01:43.858Z,22.10
2018-07-02T20:04:12.745Z,22.10
2018-07-02T20:06:41.744Z,22.10
2018-07-02T20:09:10.648Z,22.10
2018-07-02T20:11:39.564Z,22.20
2018-07-02T20:14:08.525Z,22.30
2018-07-02T20:16:37.487Z,22.30
2018-07-02T20:19:06.484Z,22.10
2018-07-02T20:21:35.388Z,22.20
2018-07-02T20:24:04.290Z,22.10
2018-07-02T20:26:33.259Z,21.90
2018-07-02T20:29:02.176Z,21.90
2018-07-02T20:31:31.087Z,21.90
2018-07-02T20:33:59.974Z,21.90
2018-07-02T20:36:28.963Z,21.90
2018-07-02T20:38:58.040Z,21.90
2018-07-02T20:41:26.960Z,21.90
2018-07-02T20:46:24.309Z,21.70
2018-07-02T20:48:53.194Z,21.70
2018-07-02T20:51:22.143Z,21.70
2018-07-02T20:53:51.089Z,21.60
2018-07-02T20:56:20.100Z,21.60
2018-07-02T20:58:49.066Z,21.60
2018-07-02T21:01:18.014Z,21.70
2018-07-02T21:03:46.942Z,21.70
2018-07-02T21:06:15.896Z,21.70
2018-07-02T21:08:44.950Z,21.60
2018-07-02T21:11:13.846Z,21.50
2018-07-02T21:13:42.755Z,21.40
2018-07-02T21:16:11.737Z,21.40
2018-07-02T21:21:09.260Z,21.40
2018-07-02T21:23:38.196Z,21.40
2018-07-02T21:28:35.684Z,21.30
2018-07-02T21:31:04.697Z,21.30
2018-07-02T21:33:33.645Z,21.20
2018-07-02T21:36:02.705Z,21.20
2018-07-02T21:38:31.634Z,21.20
2018-07-02T21:41:00.575Z,21.20
2018-07-02T21:43:29.502Z,21.30
2018-07-02T21:45:58.432Z,21.30
2018-07-02T21:48:27.358Z,21.30
2018-07-02T21:50:56.224Z,21.30
2018-07-02T21:53:25.185Z,21.20
2018-07-02T21:58:22.532Z,21.20
2018-07-02T22:00:51.485Z,21.10
2018-07-02T22:03:20.425Z,21.10
2018-07-02T22:05:49.387Z,21.00
2018-07-02T22:08:18.298Z,21.00
2018-07-02T22:10:47.242Z,21.00
2018-07-02T22:13:16.140Z,20.90
2018-07-02T22:15:45.042Z,20.80
2018-07-02T22:18:14.037Z,20.80
2018-07-02T22:20:43.024Z,20.80
2018-07-02T22:23:11.960Z,20.80
2018-07-02T22:25:40.880Z,20.70
2018-07-02T22:28:09.818Z,20.70
2018-07-02T22:30:38.760Z,20.60
2018-07-02T22:33:07.752Z,20.70
2018-07-02T22:35:36.695Z,20.70
2018-07-02T22:38:05.666Z,20.60
2018-07-02T22:40:34.566Z,20.50
2018-07-02T22:43:03.551Z,20.40
2018-07-02T22:45:32.505Z,20.40
2018-07-02T22:48:01.436Z,20.40
2018-07-02T22:50:30.374Z,20.40
2018-07-02T22:55:27.839Z,20.20
2018-07-02T22:57:56.729Z,20.20
2018-07-02T23:00:25.694Z,20.20
2018-07-02T23:02:54.605Z,20.10
2018-07-02T23:05:23.513Z,20.10
2018-07-02T23:10:20.914Z,20.10
2018-07-02T23:12:49.803Z,20.20
2018-07-02T23:15:18.760Z,20.20
2018-07-02T23:20:16.165Z,20.00
2018-07-02T23:22:57.357Z,20.10
2018-07-02T23:25:26.906Z,20.00
2018-07-02T23:27:56.424Z,19.70
2018-07-02T23:30:25.366Z,19.80
2018-07-02T23:32:54.282Z,19.80
2018-07-02T23:35:23.259Z,19.80
2018-07-02T23:37:52.906Z,19.80
2018-07-02T23:42:53.580Z,19.80
2018-07-02T23:45:23.390Z,19.90
2018-07-02T23:47:52.308Z,19.80
2018-07-02T23:50:21.290Z,19.80
2018-07-02T23:52:50.217Z,19.90
2018-07-02T23:55:19.177Z,19.80
2018-07-02T23:57:48.117Z,19.80
